Time;durP1;ratioP1;P1;durP2;ratioP2;P2;SDS_P1;SDS_P2;PMS_P1;PMS_P2;Temp;Humidity;BMP_temperature;BMP_pressure;BME280_temperature;BME280_humidity;BME280_pressure;Samples;Min_cycle;Max_cycle;Signal;HPM_P1;HPM_P2
2021/05/07 00:01:05;;;;;;;16.30;9.80;;;;;;;6.27;59.24;99213.80;129996;1101;22569;-61
2021/05/07 00:03:34;;;;;;;19.10;9.25;;;;;;;6.27;59.22;99217.33;129954;1101;22698;-61
2021/05/07 00:06:04;;;;;;;20.10;9.75;;;;;;;6.27;58.77;99213.80;130027;1101;23793;-57
2021/05/07 00:08:33;;;;;;;17.83;9.73;;;;;;;6.28;58.85;99216.27;129972;1101;22618;-57
2021/05/07 00:11:05;;;;;;;19.93;9.97;;;;;;;6.28;59.58;99215.45;130034;1101;22569;-57
2021/05/07 00:13:33;;;;;;;20.45;10.85;;;;;;;6.26;58.79;99212.16;129977;1101;22626;-56
2021/05/07 00:16:01;;;;;;;19.55;10.50;;;;;;;6.23;59.27;99212.62;129969;1100;22584;-56
2021/05/07 00:18:29;;;;;;;19.85;11.15;;;;;;;6.23;60.07;99212.62;129962;1101;22560;-57
2021/05/07 00:20:57;;;;;;;25.35;11.55;;;;;;;6.23;60.04;99209.91;130023;1101;22523;-56
2021/05/07 00:23:25;;;;;;;21.33;10.90;;;;;;;6.25;60.88;99213.21;130008;1101;22650;-58
2021/05/07 00:25:53;;;;;;;21.40;10.85;;;;;;;6.28;61.03;99212.74;129943;1101;22538;-57
2021/05/07 00:28:21;;;;;;;20.05;10.75;;;;;;;6.35;60.75;99206.13;130026;1101;22532;-57
2021/05/07 00:30:49;;;;;;;24.45;11.40;;;;;;;6.42;60.36;99207.89;129929;1101;22555;-56
2021/05/07 00:33:17;;;;;;;25.50;11.15;;;;;;;6.47;60.46;99198.01;129971;1101;22575;-57
2021/05/07 00:35:45;;;;;;;26.40;12.10;;;;;;;6.53;59.54;99185.38;128871;1096;26263;-60
2021/05/07 00:38:14;;;;;;;19.50;11.23;;;;;;;6.60;59.49;99184.20;129994;1101;23456;-60
2021/05/07 00:40:43;;;;;;;22.23;11.30;;;;;;;6.66;58.58;99190.52;129945;1101;22613;-60
2021/05/07 00:43:13;;;;;;;19.85;10.75;;;;;;;6.72;58.17;99181.45;129985;1101;22667;-61
2021/05/07 00:45:42;;;;;;;18.50;9.40;;;;;;;6.78;57.86;99179.67;129969;1101;22972;-60
2021/05/07 00:48:11;;;;;;;18.30;8.90;;;;;;;6.84;58.11;99182.22;130017;1101;22577;-60
2021/05/07 00:50:42;;;;;;;19.10;9.80;;;;;;;6.88;57.97;99183.38;129969;1101;22482;-61
2021/05/07 00:53:12;;;;;;;20.60;8.80;;;;;;;6.91;57.13;99185.61;129991;1101;23445;-60
2021/05/07 00:55:40;;;;;;;17.37;8.80;;;;;;;6.92;57.11;99189.97;130020;1101;22543;-60
2021/05/07 00:58:10;;;;;;;15.30;7.85;;;;;;;6.93;57.09;99188.88;129991;1101;23601;-65
2021/05/07 01:00:38;;;;;;;12.95;7.95;;;;;;;6.92;57.08;99186.44;129925;1101;22529;-65
2021/05/07 01:03:06;;;;;;;16.55;8.00;;;;;;;6.89;57.20;99197.75;129960;1101;22566;-66
2021/05/07 01:05:34;;;;;;;15.83;8.47;;;;;;;6.85;57.39;99183.86;129966;1101;23504;-65
2021/05/07 01:08:02;;;;;;;13.87;8.13;;;;;;;6.81;57.51;99187.28;129950;1101;22584;-65
2021/05/07 01:10:30;;;;;;;16.65;8.20;;;;;;;6.75;57.56;99186.38;129967;1101;22620;-65
2021/05/07 01:12:58;;;;;;;13.57;7.63;;;;;;;6.69;57.81;99190.05;130000;1101;22620;-65
2021/05/07 01:15:45;;;;;;;14.10;8.15;;;;;;;6.62;58.44;99184.78;129943;1101;22543;-65
2021/05/07 01:18:14;;;;;;;19.90;8.37;;;;;;;6.57;58.21;99187.38;129985;1101;22570;-65
2021/05/07 01:20:43;;;;;;;19.47;8.63;;;;;;;6.53;57.62;99193.50;130035;1101;22504;-65
2021/05/07 01:23:12;;;;;;;14.50;7.53;;;;;;;6.50;57.71;99186.68;129960;1101;22681;-65
2021/05/07 01:25:42;;;;;;;11.80;7.30;;;;;;;6.48;57.72;99186.13;130026;1101;23295;-65
2021/05/07 01:28:13;;;;;;;13.37;6.90;;;;;;;6.45;58.06;99183.89;129941;1101;22682;-65
2021/05/07 01:30:43;;;;;;;12.17;6.13;;;;;;;6.43;57.49;99179.77;129953;1101;22560;-65
2021/05/07 01:33:15;;;;;;;13.75;6.65;;;;;;;6.38;57.93;99173.19;129947;1101;22578;-65
2021/05/07 01:35:45;;;;;;;19.95;7.65;;;;;;;6.35;57.57;99179.06;130009;1101;22556;-65
2021/05/07 01:38:15;;;;;;;10.93;5.87;;;;;;;6.28;58.18;99172.98;129947;1101;22591;-65
2021/05/07 01:40:45;;;;;;;15.97;7.07;;;;;;;6.25;58.87;99175.34;129941;1101;22549;-65
2021/05/07 01:43:14;;;;;;;12.45;6.60;;;;;;;6.23;58.49;99177.45;129936;1101;22571;-65
2021/05/07 01:45:44;;;;;;;10.53;5.10;;;;;;;6.21;57.79;99174.98;129982;1101;22967;-65
2021/05/07 01:48:13;;;;;;;11.95;5.65;;;;;;;6.20;58.51;99177.95;129983;1101;22557;-65
2021/05/07 01:50:44;;;;;;;11.53;5.87;;;;;;;6.17;58.62;99173.02;130019;1101;22586;-65
2021/05/07 01:53:12;;;;;;;12.90;6.00;;;;;;;6.14;59.17;99173.48;129926;1101;22577;-62
2021/05/07 01:55:42;;;;;;;12.45;6.30;;;;;;;6.11;59.18;99180.19;129990;1101;22526;-62
2021/05/07 01:58:13;;;;;;;11.20;5.17;;;;;;;6.12;58.88;99187.23;129905;1101;22532;-62
2021/05/07 02:00:44;;;;;;;11.45;4.85;;;;;;;6.11;58.06;99190.18;129967;1101;22529;-61
2021/05/07 02:03:12;;;;;;;14.05;5.05;;;;;;;6.08;58.42;99193.34;129957;1101;22560;-62
2021/05/07 02:05:50;;;;;;;10.23;4.43;;;;;;;6.04;58.35;99193.02;130011;1101;23349;-62
2021/05/07 02:08:18;;;;;;;8.63;5.27;;;;;;;6.03;58.50;99196.78;129962;1101;22543;-62
2021/05/07 02:10:51;;;;;;;20.03;6.00;;;;;;;6.00;58.30;99195.38;130002;1101;22718;-62
2021/05/07 02:13:19;;;;;;;11.70;5.50;;;;;;;6.02;57.91;99198.66;130013;1101;22645;-62
2021/05/07 02:15:54;;;;;;;11.60;5.35;;;;;;;6.02;58.67;99201.38;128568;1101;22767;-62
2021/05/07 02:18:25;;;;;;;13.25;6.20;;;;;;;6.06;58.44;99203.61;125498;1101;24407;-61
2021/05/07 02:20:58;;;;;;;10.45;6.20;;;;;;;6.07;58.26;99205.22;125460;1096;25839;-61
2021/05/07 02:23:30;;;;;;;11.15;5.70;;;;;;;6.10;59.31;99200.17;129945;1101;23533;-62
2021/05/07 02:25:58;;;;;;;14.00;6.60;;;;;;;6.11;59.71;99198.29;130008;1101;22605;-62
2021/05/07 02:28:41;;;;;;;13.85;6.65;;;;;;;6.16;59.40;99201.13;129925;1101;22592;-62
2021/05/07 02:31:09;;;;;;;10.35;5.55;;;;;;;6.19;59.17;99196.06;129955;1101;23342;-62
2021/05/07 02:33:38;;;;;;;12.60;5.03;;;;;;;6.26;59.12;99206.73;129937;1101;22643;-62
2021/05/07 02:36:08;;;;;;;11.80;5.50;;;;;;;6.32;59.03;99192.27;130053;1101;23524;-62
2021/05/07 02:38:38;;;;;;;7.60;4.25;;;;;;;6.39;59.50;99196.48;130023;1101;22587;-62
2021/05/07 02:41:06;;;;;;;8.65;4.35;;;;;;;6.48;60.40;99190.71;129944;1101;22670;-60
2021/05/07 02:43:34;;;;;;;11.57;4.83;;;;;;;6.53;60.33;99197.03;130008;1101;23444;-60
2021/05/07 02:46:02;;;;;;;7.83;4.10;;;;;;;6.63;59.91;99185.61;128243;1093;26213;-60
2021/05/07 02:48:32;;;;;;;12.35;4.95;;;;;;;6.69;60.59;99181.92;129981;1101;22500;-60
2021/05/07 02:51:01;;;;;;;8.95;4.80;;;;;;;6.73;60.93;99194.74;129990;1101;23412;-59
2021/05/07 02:53:29;;;;;;;8.07;4.30;;;;;;;6.78;60.65;99190.50;129991;1101;22549;-60
2021/05/07 02:55:58;;;;;;;12.00;4.50;;;;;;;6.78;60.06;99191.30;129984;1101;22731;-64
2021/05/07 02:58:25;;;;;;;6.30;3.37;;;;;;;6.83;59.24;99190.58;130026;1101;22536;-64
2021/05/07 03:00:54;;;;;;;4.63;2.90;;;;;;;6.91;57.96;99196.45;129956;1101;22528;-64
2021/05/07 03:03:22;;;;;;;7.00;3.15;;;;;;;7.02;56.89;99192.86;129998;1101;23199;-64
2021/05/07 03:05:50;;;;;;;4.80;3.15;;;;;;;7.15;56.09;99194.44;130035;1101;22511;-64
2021/05/07 03:08:24;;;;;;;14.65;7.25;;;;;;;7.31;55.84;99206.38;129999;1101;22541;-64
2021/05/07 03:10:52;;;;;;;15.95;7.70;;;;;;;7.35;55.52;99208.36;129961;1101;22625;-64
2021/05/07 03:13:20;;;;;;;20.25;9.10;;;;;;;7.33;54.75;99202.36;129963;1101;22742;-64
2021/05/07 03:15:50;;;;;;;14.75;7.40;;;;;;;7.31;54.98;99214.50;129975;1101;22637;-65
2021/05/07 03:18:18;;;;;;;16.25;7.75;;;;;;;7.31;54.36;99207.19;130036;1101;23168;-65
2021/05/07 03:20:47;;;;;;;14.90;7.35;;;;;;;7.32;54.78;99208.84;129970;1101;22541;-65
2021/05/07 03:23:15;;;;;;;15.35;6.90;;;;;;;7.37;54.58;99208.08;129980;1101;22614;-65
2021/05/07 03:25:44;;;;;;;16.75;7.90;;;;;;;7.42;55.60;99213.60;129961;1101;22614;-64
2021/05/07 03:28:12;;;;;;;13.90;7.23;;;;;;;7.51;54.93;99206.70;130011;1101;25071;-64
2021/05/07 03:30:40;;;;;;;14.05;7.55;;;;;;;7.60;55.41;99204.42;130032;1101;22656;-64
2021/05/07 03:33:08;;;;;;;17.20;8.20;;;;;;;7.66;55.82;99201.53;130001;1101;22542;-65
2021/05/07 03:35:36;;;;;;;19.50;8.30;;;;;;;7.74;56.08;99208.44;129983;1101;22594;-62
2021/05/07 03:38:05;;;;;;;14.75;8.80;;;;;;;7.80;56.91;99208.26;129974;1101;22684;-61
2021/05/07 03:40:33;;;;;;;16.95;7.80;;;;;;;7.90;56.91;99214.93;130025;1101;22532;-61
2021/05/07 03:43:02;;;;;;;21.10;6.90;;;;;;;8.00;56.09;99215.08;129940;1101;22540;-61
2021/05/07 03:45:30;;;;;;;16.75;6.50;;;;;;;8.11;55.92;99214.14;130012;1101;22765;-61
2021/05/07 03:47:59;;;;;;;15.60;6.07;;;;;;;8.24;55.18;99207.53;130010;1101;22584;-61
2021/05/07 03:50:28;;;;;;;10.60;6.00;;;;;;;8.36;55.59;99211.84;130009;1101;23330;-61
2021/05/07 03:52:56;;;;;;;13.05;6.05;;;;;;;8.50;55.02;99210.40;129954;1101;23423;-61
2021/05/07 03:55:24;;;;;;;15.75;5.80;;;;;;;8.63;55.09;99216.52;130007;1101;22607;-61
2021/05/07 03:57:52;;;;;;;13.90;6.25;;;;;;;8.74;54.54;99212.84;129933;1101;22510;-61
2021/05/07 04:00:22;;;;;;;11.55;5.05;;;;;;;8.84;53.75;99213.77;129979;1101;22557;-61
2021/05/07 04:02:50;;;;;;;16.65;5.60;;;;;;;8.93;53.13;99208.73;129953;1101;22588;-61
2021/05/07 04:05:19;;;;;;;22.65;6.75;;;;;;;9.03;53.28;99213.45;129990;1101;22624;-60
2021/05/07 04:07:52;;;;;;;15.00;5.50;;;;;;;9.13;53.12;99218.98;129985;1101;23683;-60
2021/05/07 04:10:21;;;;;;;9.95;4.05;;;;;;;9.23;52.20;99218.28;129965;1101;22589;-61
2021/05/07 04:15:18;;;;;;;8.60;2.30;;;;;;;9.39;50.33;99220.87;129985;1101;22629;-61
2021/05/07 04:17:47;;;;;;;4.35;2.25;;;;;;;9.49;50.27;99229.14;130012;1101;22595;-60
2021/05/07 04:20:15;;;;;;;5.05;1.90;;;;;;;9.62;50.04;99218.91;129947;1101;22743;-60
2021/05/07 04:22:43;;;;;;;14.10;2.30;;;;;;;9.78;49.56;99217.96;130001;1101;22658;-60
2021/05/07 04:25:11;;;;;;;5.20;1.97;;;;;;;9.93;48.56;99224.34;129956;1101;22534;-60
2021/05/07 04:27:39;;;;;;;15.57;2.07;;;;;;;10.14;48.07;99221.74;130005;1101;22690;-60
2021/05/07 04:30:08;;;;;;;5.70;2.50;;;;;;;10.35;47.08;99222.73;129952;1101;22598;-60
2021/05/07 04:32:36;;;;;;;4.67;1.70;;;;;;;10.50;46.49;99217.37;130002;1101;22720;-60
2021/05/07 04:35:04;;;;;;;5.95;2.10;;;;;;;10.62;45.99;99215.24;129943;1101;22547;-60
2021/05/07 04:37:32;;;;;;;4.98;1.80;;;;;;;10.70;45.52;99216.63;130008;1101;22599;-60
2021/05/07 04:40:00;;;;;;;11.20;2.20;;;;;;;10.75;45.28;99213.93;129975;1101;23468;-60
2021/05/07 04:42:28;;;;;;;5.47;1.97;;;;;;;10.81;45.72;99213.70;130017;1101;22515;-61
2021/05/07 04:44:56;;;;;;;4.50;2.25;;;;;;;10.88;45.25;99206.08;129975;1101;22640;-60
2021/05/07 04:47:24;;;;;;;10.48;2.60;;;;;;;11.00;45.69;99216.73;130022;1101;22661;-60
2021/05/07 04:49:52;;;;;;;13.93;3.07;;;;;;;11.12;45.05;99216.48;129898;1101;22785;-60
2021/05/07 04:52:20;;;;;;;11.57;2.17;;;;;;;11.25;45.04;99205.09;129992;1101;22631;-60
2021/05/07 04:54:48;;;;;;;4.88;2.10;;;;;;;11.34;43.89;99208.91;129975;1101;22607;-61
2021/05/07 04:57:16;;;;;;;6.00;2.28;;;;;;;11.37;44.50;99208.38;130002;1101;22578;-60
2021/05/07 05:02:31;;;;;;;10.48;2.83;;;;;;;11.42;44.01;99205.64;125591;1090;24142;-59
2021/05/07 05:05:03;;;;;;;5.45;2.40;;;;;;;11.52;43.82;99200.22;129847;1101;23698;-60
2021/05/07 05:07:31;;;;;;;6.70;2.60;;;;;;;11.60;43.30;99199.66;129976;1101;23050;-60
2021/05/07 05:09:59;;;;;;;14.78;2.98;;;;;;;11.72;43.17;99195.83;129930;1101;22572;-60
2021/05/07 05:12:27;;;;;;;9.55;2.30;;;;;;;11.80;42.70;99207.06;129947;1101;22551;-60
2021/05/07 05:14:55;;;;;;;9.68;2.15;;;;;;;11.88;42.32;99202.95;129915;1101;22520;-60
2021/05/07 05:17:23;;;;;;;5.08;2.65;;;;;;;11.97;42.27;99202.12;129996;1101;22566;-60
2021/05/07 05:19:51;;;;;;;8.63;2.50;;;;;;;12.07;41.81;99205.95;130019;1101;23282;-60
2021/05/07 05:22:19;;;;;;;4.75;2.38;;;;;;;12.17;41.83;99200.45;129895;1101;22549;-60
2021/05/07 05:24:48;;;;;;;7.30;2.35;;;;;;;12.27;41.44;99195.78;129962;1101;22630;-60
2021/05/07 05:27:15;;;;;;;18.35;3.08;;;;;;;12.37;41.79;99201.24;129908;1101;22671;-60
2021/05/07 05:29:45;;;;;;;4.55;2.10;;;;;;;12.49;41.01;99192.73;130011;1101;22530;-60
2021/05/07 05:32:13;;;;;;;10.00;2.50;;;;;;;12.61;41.20;99195.14;129932;1101;22545;-60
2021/05/07 05:34:42;;;;;;;21.80;3.10;;;;;;;12.70;41.35;99193.45;129964;1101;22563;-60
2021/05/07 05:37:11;;;;;;;10.30;2.50;;;;;;;12.76;41.02;99195.08;129942;1101;23961;-59
2021/05/07 05:39:39;;;;;;;9.60;2.00;;;;;;;12.83;41.11;99200.27;129991;1101;22677;-59
2021/05/07 05:42:26;;;;;;;4.75;2.50;;;;;;;12.94;40.76;99197.19;129919;1101;22565;-60
2021/05/07 05:44:54;;;;;;;8.33;2.63;;;;;;;13.01;40.53;99189.48;129950;1101;22597;-60
2021/05/07 05:47:22;;;;;;;7.03;2.33;;;;;;;13.08;41.06;99197.39;129892;1101;22603;-60
2021/05/07 05:49:56;;;;;;;8.80;3.30;;;;;;;13.14;41.01;99190.77;129952;1101;22584;-60
2021/05/07 05:52:24;;;;;;;5.83;2.58;;;;;;;13.22;40.60;99190.22;129934;1101;22587;-59
2021/05/07 05:54:52;;;;;;;9.43;3.10;;;;;;;13.25;40.83;99194.31;129961;1101;22609;-60
2021/05/07 05:57:20;;;;;;;6.67;3.13;;;;;;;13.27;40.89;99192.91;125850;1095;25318;-60
2021/05/07 05:59:49;;;;;;;6.83;2.63;;;;;;;13.33;41.28;99205.47;130011;1101;24449;-60
2021/05/07 06:02:18;;;;;;;11.75;3.90;;;;;;;13.36;40.94;99204.09;129928;1101;22637;-60
2021/05/07 06:04:47;;;;;;;10.23;3.65;;;;;;;13.36;41.44;99199.43;129966;1101;23398;-61
2021/05/07 06:07:15;;;;;;;8.10;3.03;;;;;;;13.35;41.13;99202.45;129951;1101;23337;-60
2021/05/07 06:09:43;;;;;;;12.88;3.00;;;;;;;13.35;41.17;99202.45;129939;1101;22533;-60
2021/05/07 06:12:11;;;;;;;11.70;3.55;;;;;;;13.41;41.70;99195.85;129957;1101;22851;-60
2021/05/07 06:14:39;;;;;;;6.50;3.30;;;;;;;13.49;41.59;99192.50;129962;1101;22654;-60
2021/05/07 06:17:09;;;;;;;11.63;3.25;;;;;;;13.55;41.09;99196.84;130002;1101;22660;-60
2021/05/07 06:19:37;;;;;;;8.10;2.53;;;;;;;13.63;42.09;99192.66;129968;1101;22542;-60
2021/05/07 06:22:05;;;;;;;31.40;3.45;;;;;;;13.69;41.38;99186.05;129953;1101;22530;-60
2021/05/07 06:24:33;;;;;;;7.55;2.58;;;;;;;13.76;40.75;99194.74;129912;1101;22583;-60
2021/05/07 06:27:02;;;;;;;11.10;2.30;;;;;;;13.83;40.06;99191.69;126349;1101;22921;-67
2021/05/07 06:29:31;;;;;;;14.15;3.13;;;;;;;13.91;39.88;99191.05;129812;1101;23873;-68
2021/05/07 06:31:58;;;;;;;13.73;2.90;;;;;;;13.97;40.24;99190.73;129965;1101;22581;-67
2021/05/07 06:34:26;;;;;;;3.88;2.38;;;;;;;14.03;40.48;99191.48;129955;1101;22519;-68
2021/05/07 06:36:54;;;;;;;6.60;2.00;;;;;;;14.07;40.82;99187.07;129958;1101;22517;-67
2021/05/07 06:39:28;;;;;;;5.73;2.58;;;;;;;14.11;40.81;99186.21;129972;1101;22513;-68
2021/05/07 06:41:57;;;;;;;6.65;2.28;;;;;;;14.18;40.83;99196.00;129946;1101;22668;-67
2021/05/07 06:44:28;;;;;;;8.30;2.18;;;;;;;14.26;40.46;99195.38;129945;1101;22540;-67
2021/05/07 06:46:55;;;;;;;13.95;2.45;;;;;;;14.30;40.41;99180.79;129953;1101;22679;-68
2021/05/07 06:49:24;;;;;;;11.43;2.58;;;;;;;14.36;40.18;99182.38;129957;1101;22610;-68
2021/05/07 06:51:52;;;;;;;6.25;2.10;;;;;;;14.41;39.94;99185.11;129969;1101;22545;-67
2021/05/07 06:54:26;;;;;;;8.05;1.90;;;;;;;14.46;39.58;99186.95;129978;1101;22669;-68
2021/05/07 06:56:57;;;;;;;3.80;2.10;;;;;;;14.48;40.16;99179.26;129962;1101;22619;-68
2021/05/07 06:59:26;;;;;;;14.68;2.58;;;;;;;14.50;39.27;99177.05;129958;1101;22581;-68
2021/05/07 07:01:54;;;;;;;4.45;2.00;;;;;;;14.55;38.33;99173.44;129982;1101;23029;-68
2021/05/07 07:04:22;;;;;;;11.18;1.85;;;;;;;14.58;38.96;99168.16;129924;1101;23250;-68
2021/05/07 07:06:50;;;;;;;7.85;1.98;;;;;;;14.58;38.51;99162.68;130000;1101;22539;-68
2021/05/07 07:09:19;;;;;;;9.15;1.93;;;;;;;14.57;37.79;99172.01;129991;1101;22640;-67
2021/05/07 07:11:52;;;;;;;4.48;1.73;;;;;;;14.57;38.50;99168.48;129950;1101;22609;-67
2021/05/07 07:14:20;;;;;;;9.48;2.45;;;;;;;14.57;38.62;99165.73;129984;1101;22541;-68
2021/05/07 07:16:48;;;;;;;3.13;1.95;;;;;;;14.55;39.15;99165.21;129881;1101;22506;-68
2021/05/07 07:19:16;;;;;;;8.75;2.38;;;;;;;14.56;39.84;99164.92;130000;1101;22550;-67
2021/05/07 07:22:05;;;;;;;8.65;1.98;;;;;;;14.55;40.27;99165.21;129997;1101;22677;-67
2021/05/07 07:24:34;;;;;;;4.58;2.00;;;;;;;14.56;39.04;99166.84;130021;1101;23096;-68
2021/05/07 07:27:02;;;;;;;5.00;1.80;;;;;;;14.57;38.67;99165.73;129953;1101;23534;-68
2021/05/07 07:29:30;;;;;;;4.75;1.78;;;;;;;14.57;39.14;99169.27;130035;1101;22613;-68
2021/05/07 07:31:58;;;;;;;27.90;4.20;;;;;;;14.60;38.87;99165.13;129968;1101;22517;-68
2021/05/07 07:34:26;;;;;;;6.25;2.25;;;;;;;14.62;39.05;99154.69;129970;1101;22553;-68
2021/05/07 07:36:54;;;;;;;16.58;2.15;;;;;;;14.66;39.15;99151.08;129923;1101;22591;-67
2021/05/07 07:39:22;;;;;;;7.20;2.23;;;;;;;14.69;39.58;99150.50;129978;1101;22565;-67
2021/05/07 07:41:50;;;;;;;3.50;1.83;;;;;;;14.71;38.87;99151.02;129900;1101;22552;-67
2021/05/07 07:44:18;;;;;;;18.63;2.78;;;;;;;14.72;39.50;99141.66;129952;1101;22524;-67
2021/05/07 07:46:46;;;;;;;3.23;1.88;;;;;;;14.76;39.79;99155.61;129974;1101;22508;-67
2021/05/07 07:49:15;;;;;;;9.15;2.13;;;;;;;14.79;39.89;99149.53;129988;1101;22588;-67
2021/05/07 07:51:43;;;;;;;3.88;1.45;;;;;;;14.80;39.14;99151.98;129916;1101;22680;-67
2021/05/07 07:54:12;;;;;;;6.05;1.78;;;;;;;14.80;38.91;99145.69;129997;1101;22634;-67
2021/05/07 07:56:40;;;;;;;6.15;1.40;;;;;;;14.82;38.92;99144.28;129906;1101;22648;-67
2021/05/07 07:59:08;;;;;;;5.30;1.80;;;;;;;14.84;39.22;99144.81;129998;1101;22543;-67
2021/05/07 08:01:36;;;;;;;17.13;2.50;;;;;;;14.85;39.01;99145.63;129990;1101;22536;-67
2021/05/07 08:04:05;;;;;;;6.15;2.20;;;;;;;14.85;39.74;99145.63;130012;1101;22579;-67
2021/05/07 08:06:34;;;;;;;6.15;1.95;;;;;;;14.86;39.56;99139.00;127383;1101;22754;-63
2021/05/07 08:09:04;;;;;;;6.10;1.90;;;;;;;14.85;39.75;99137.41;125380;1096;22807;-63
2021/05/07 08:11:32;;;;;;;4.97;1.73;;;;;;;14.88;40.03;99141.45;130013;1101;22633;-64
2021/05/07 08:14:00;;;;;;;3.60;1.50;;;;;;;14.90;39.09;99141.98;129912;1101;22607;-64
2021/05/07 08:16:29;;;;;;;5.65;1.80;;;;;;;14.92;40.33;99135.09;130053;1101;23215;-64
2021/05/07 08:18:58;;;;;;;3.23;2.18;;;;;;;14.93;39.86;99149.63;129990;1101;22532;-64
2021/05/07 08:21:26;;;;;;;7.93;1.70;;;;;;;14.93;39.63;99142.21;130019;1101;22628;-64
2021/05/07 08:23:55;;;;;;;5.48;1.90;;;;;;;14.96;39.56;99130.66;129978;1101;22506;-64
2021/05/07 08:26:23;;;;;;;3.65;1.48;;;;;;;14.99;39.06;99138.30;130027;1101;22628;-64
2021/05/07 08:28:51;;;;;;;5.53;1.63;;;;;;;15.00;38.96;99145.42;129966;1101;23516;-64
2021/05/07 08:31:19;;;;;;;21.60;3.38;;;;;;;15.00;38.50;99134.45;130049;1101;22517;-64
2021/05/07 08:33:47;;;;;;;10.68;2.00;;;;;;;14.99;38.42;99129.25;130001;1101;23107;-64
2021/05/07 08:36:15;;;;;;;4.33;1.73;;;;;;;14.98;38.68;99136.66;130017;1101;22746;-64
2021/05/07 08:38:43;;;;;;;7.98;1.78;;;;;;;14.95;38.39;99137.25;130011;1101;22494;-64
2021/05/07 08:41:11;;;;;;;6.03;2.10;;;;;;;14.91;38.50;99140.87;130034;1101;22554;-67
2021/05/07 08:43:39;;;;;;;5.20;1.03;;;;;;;14.83;38.65;99132.20;130008;1101;22530;-68
2021/05/07 08:46:08;;;;;;;26.08;3.65;;;;;;;14.79;38.64;99125.67;130008;1101;22483;-68
2021/05/07 08:48:39;;;;;;;7.08;1.83;;;;;;;14.79;39.28;99125.67;129940;1101;22568;-68
2021/05/07 08:51:08;;;;;;;8.33;1.45;;;;;;;14.80;38.45;99115.52;130036;1101;23522;-67
2021/05/07 08:53:36;;;;;;;5.28;2.75;;;;;;;14.81;39.28;99122.64;130027;1101;22587;-67
2021/05/07 08:56:13;;;;;;;9.43;1.95;;;;;;;14.82;39.08;99118.78;130007;1101;22620;-67
2021/05/07 08:58:41;;;;;;;17.68;2.45;;;;;;;14.85;39.07;99119.02;129967;1101;22628;-67
2021/05/07 09:01:10;;;;;;;15.68;3.70;;;;;;;14.92;39.61;99128.79;129997;1101;22528;-67
2021/05/07 09:03:39;;;;;;;12.05;3.53;;;;;;;14.96;39.97;99118.86;129984;1101;22554;-67
2021/05/07 09:06:17;;;;;;;6.38;2.20;;;;;;;15.01;40.42;99116.84;130020;1101;22557;-69
2021/05/07 09:08:45;;;;;;;3.50;2.03;;;;;;;15.09;40.56;99116.19;130033;1101;22522;-70
2021/05/07 09:11:16;;;;;;;5.23;2.98;;;;;;;15.19;41.26;99104.23;129996;1101;22556;-70
2021/05/07 09:13:45;;;;;;;4.65;1.50;;;;;;;15.33;40.55;99104.28;130015;1101;22603;-70
2021/05/07 09:16:12;;;;;;;5.67;3.80;;;;;;;15.43;40.96;99090.41;127930;1101;22760;-67
2021/05/07 09:18:42;;;;;;;27.23;3.40;;;;;;;15.56;40.84;99089.67;125467;1101;22730;-66
2021/05/07 09:21:13;;;;;;;12.20;4.20;;;;;;;15.66;40.32;99083.98;129959;1101;22558;-67
2021/05/07 09:23:47;;;;;;;5.78;2.58;;;;;;;15.78;40.23;99080.75;129985;1101;22522;-66
2021/05/07 09:26:16;;;;;;;9.38;3.80;;;;;;;15.83;39.58;99089.72;129935;1101;23170;-67
2021/05/07 09:29:02;;;;;;;18.80;3.55;;;;;;;15.88;39.79;99089.61;130023;1101;22554;-67
2021/05/07 09:31:30;;;;;;;10.45;2.25;;;;;;;15.90;40.17;99078.31;129983;1101;22586;-67
2021/05/07 09:34:03;;;;;;;7.85;3.38;;;;;;;15.94;40.55;99059.30;129995;1101;22533;-67
2021/05/07 09:36:32;;;;;;;8.85;4.38;;;;;;;16.00;40.80;99063.59;129972;1101;23372;-67
2021/05/07 09:39:00;;;;;;;3.50;2.30;;;;;;;16.05;39.63;99045.05;130011;1101;22510;-67
2021/05/07 09:41:48;;;;;;;19.88;3.10;;;;;;;16.09;39.66;99048.83;129992;1101;22540;-69
2021/05/07 09:44:25;;;;;;;10.65;2.43;;;;;;;16.07;39.48;99048.31;129985;1101;22683;-69
2021/05/07 09:46:54;;;;;;;9.23;2.38;;;;;;;16.06;39.89;99043.11;126732;1101;22737;-68
2021/05/07 09:49:29;;;;;;;9.25;2.83;;;;;;;16.06;40.10;99041.19;130058;1101;22528;-69
2021/05/07 09:51:58;;;;;;;15.00;3.28;;;;;;;16.09;40.43;99042.51;129960;1101;22546;-69
2021/05/07 09:54:26;;;;;;;23.00;6.70;;;;;;;16.09;40.48;99023.27;130021;1101;23177;-69
2021/05/07 09:56:54;;;;;;;13.88;5.60;;;;;;;16.05;40.87;99036.80;129965;1101;22549;-66
2021/05/07 09:59:22;;;;;;;6.03;2.10;;;;;;;15.98;39.72;99032.85;129979;1101;22587;-66
2021/05/07 10:01:50;;;;;;;6.60;2.90;;;;;;;15.89;39.99;99019.80;129995;1101;22627;-66
2021/05/07 10:04:18;;;;;;;5.05;2.38;;;;;;;15.87;40.29;99029.47;130016;1101;23155;-66
2021/05/07 10:06:46;;;;;;;5.40;3.75;;;;;;;15.86;39.80;99023.19;129972;1101;22667;-66
2021/05/07 10:09:22;;;;;;;11.08;6.30;;;;;;;15.86;40.05;99020.44;130031;1101;22513;-66
2021/05/07 10:11:51;;;;;;;7.43;3.20;;;;;;;15.89;40.19;99029.98;129967;1101;22611;-66
2021/05/07 10:14:30;;;;;;;8.63;1.85;;;;;;;15.87;39.39;99019.30;129989;1101;23505;-66
2021/05/07 10:17:11;;;;;;;7.90;2.70;;;;;;;15.82;39.73;99011.17;129958;1101;22605;-66
2021/05/07 10:19:43;;;;;;;1.83;1.38;;;;;;;15.77;38.67;99018.69;129984;1101;22504;-66
2021/05/07 10:22:27;;;;;;;4.73;1.88;;;;;;;15.73;39.60;99018.47;129981;1101;22540;-66
2021/05/07 10:24:55;;;;;;;3.98;1.50;;;;;;;15.70;39.89;99012.80;130037;1101;22687;-66
2021/05/07 10:27:23;;;;;;;7.83;2.10;;;;;;;15.67;39.63;99003.23;130341;1097;23048;-66
2021/05/07 10:29:57;;;;;;;4.85;1.35;;;;;;;15.66;39.08;98995.29;130374;1095;22577;-66
2021/05/07 10:32:41;;;;;;;4.28;1.75;;;;;;;15.64;38.73;98983.78;130354;1098;23429;-66
2021/05/07 10:35:10;;;;;;;15.48;2.45;;;;;;;15.64;38.45;98987.34;130425;1097;22505;-66
2021/05/07 10:37:42;;;;;;;18.48;2.70;;;;;;;15.65;38.79;98975.25;130344;1098;23305;-67
2021/05/07 10:40:12;;;;;;;3.15;1.28;;;;;;;15.66;39.19;98976.88;130373;1097;24544;-67
2021/05/07 10:42:40;;;;;;;4.90;1.45;;;;;;;15.69;39.13;98975.46;130346;1098;22549;-67
2021/05/07 10:45:10;;;;;;;5.38;1.75;;;;;;;15.74;39.42;98967.09;130395;1097;22524;-66
2021/05/07 10:47:40;;;;;;;3.05;1.48;;;;;;;15.80;38.49;98965.89;130360;1097;23466;-66
2021/05/07 10:50:17;;;;;;;23.33;3.55;;;;;;;15.86;39.00;98954.50;130406;1097;23268;-67
2021/05/07 10:52:45;;;;;;;5.33;1.60;;;;;;;15.95;39.14;98945.53;130344;1097;22627;-67
2021/05/07 10:55:15;;;;;;;4.95;2.40;;;;;;;16.02;38.86;98941.23;130300;1098;22528;-66
2021/05/07 10:57:42;;;;;;;21.50;3.00;;;;;;;16.10;38.84;98937.77;130421;1096;22589;-66
2021/05/07 11:00:13;;;;;;;9.53;2.50;;;;;;;16.20;38.41;98929.29;130338;1097;22512;-67
2021/05/07 11:02:45;;;;;;;5.63;2.00;;;;;;;16.29;37.56;98929.39;130410;1095;22532;-67
2021/05/07 11:05:13;;;;;;;6.08;2.35;;;;;;;16.36;37.65;98937.19;130386;1097;22518;-67
2021/05/07 11:07:50;;;;;;;11.78;1.68;;;;;;;16.41;37.73;98923.34;130427;1097;22573;-67
2021/05/07 11:10:18;;;;;;;5.40;1.80;;;;;;;16.46;37.61;98929.52;130363;1098;22799;-67
2021/05/07 11:12:46;;;;;;;4.33;1.40;;;;;;;16.53;38.00;98910.66;130374;1098;22570;-66
2021/05/07 11:15:16;;;;;;;23.95;2.00;;;;;;;16.61;37.95;98922.84;130251;1097;23099;-66
2021/05/07 11:17:44;;;;;;;10.73;2.20;;;;;;;16.67;38.27;98918.88;130372;1098;23129;-67
2021/05/07 11:20:13;;;;;;;21.60;3.90;;;;;;;16.72;37.96;98915.20;130359;1097;22497;-67
2021/05/07 11:22:41;;;;;;;5.18;1.90;;;;;;;16.76;38.13;98903.23;130385;1097;22506;-67
2021/05/07 11:25:09;;;;;;;13.88;1.78;;;;;;;16.82;37.85;98903.94;130315;1098;23129;-67
2021/05/07 11:27:38;;;;;;;4.45;1.70;;;;;;;16.85;37.93;98895.87;130395;1097;22690;-67
2021/05/07 11:30:09;;;;;;;14.30;4.00;;;;;;;16.89;38.11;98896.03;130354;1097;22628;-67
2021/05/07 11:32:37;;;;;;;13.60;1.95;;;;;;;16.91;38.26;98882.77;130337;1098;22665;-67
2021/05/07 11:35:08;;;;;;;13.45;2.60;;;;;;;16.94;38.47;98871.95;130392;1097;23382;-67
2021/05/07 11:37:38;;;;;;;31.15;5.88;;;;;;;16.98;38.80;98872.14;130372;1098;22559;-66
2021/05/07 11:40:10;;;;;;;9.90;2.90;;;;;;;17.05;38.84;98877.18;130329;1097;23429;-66